Time;durP1;ratioP1;P1;durP2;ratioP2;P2;SDS_P1;SDS_P2;PMS_P1;PMS_P2;Temp;Humidity;BMP_temperature;BMP_pressure;BME280_temperature;BME280_humidity;BME280_pressure;Samples;Min_cycle;Max_cycle;Signal;HPM_P1;HPM_P2
2022/12/29 00:01:37;;;;;;;2.50;1.37;;;10.30;97.60;;;;;;5050668;28;20453;-76
2022/12/29 00:04:03;;;;;;;2.80;1.13;;;10.30;97.30;;;;;;5052859;28;20208;-77
2022/12/29 00:06:29;;;;;;;1.77;1.37;;;10.40;97.30;;;;;;5034501;28;20418;-77
2022/12/29 00:08:55;;;;;;;3.60;1.50;;;10.40;97.00;;;;;;5051614;28;20544;-77
2022/12/29 00:11:23;;;;;;;2.10;1.20;;;10.40;97.00;;;;;;5051790;28;20533;-75
2022/12/29 00:16:35;;;;;;;2.10;1.37;;;10.50;97.10;;;;;;5052730;28;20410;-76
2022/12/29 00:19:02;;;;;;;1.40;0.70;;;10.40;96.80;;;;;;5051182;28;20603;-76
2022/12/29 00:35:14;;;;;;;2.53;0.90;;;10.40;97.40;;;;;;5051446;28;20431;-75
2022/12/29 00:45:58;;;;;;;2.13;1.00;;;10.50;96.90;;;;;;5052341;28;20397;-75
2022/12/29 00:51:08;;;;;;;6.07;1.63;;;10.70;96.50;;;;;;5051851;28;20672;-75
2022/12/29 00:53:34;;;;;;;2.70;1.13;;;10.60;96.40;;;;;;5051246;28;20431;-75
2022/12/29 00:56:03;;;;;;;2.30;0.87;;;10.60;96.40;;;;;;5052684;28;20420;-74
2022/12/29 00:58:30;;;;;;;5.50;1.00;;;10.70;96.40;;;;;;5051250;28;20419;-75
2022/12/29 01:01:07;;;;;;;2.50;1.13;;;10.60;96.30;;;;;;5052574;28;20521;-75
2022/12/29 01:03:34;;;;;;;2.50;1.30;;;10.60;96.50;;;;;;5050898;28;20474;-76
2022/12/29 01:06:01;;;;;;;1.77;1.27;;;10.60;96.70;;;;;;5052380;28;20538;-77
2022/12/29 01:08:29;;;;;;;1.07;0.87;;;10.40;96.50;;;;;;5052178;28;20443;-75
2022/12/29 01:11:13;;;;;;;2.60;0.83;;;10.70;96.50;;;;;;5034393;28;20486;-75
2022/12/29 01:13:40;;;;;;;1.10;1.00;;;10.60;96.50;;;;;;5050983;28;20449;-76
2022/12/29 01:16:07;;;;;;;2.93;1.00;;;10.60;96.40;;;;;;5050693;28;20441;-75
2022/12/29 01:18:35;;;;;;;3.50;1.30;;;10.60;96.60;;;;;;5050845;28;20422;-75
2022/12/29 01:21:03;;;;;;;4.03;1.30;;;10.60;96.40;;;;;;5051795;28;20515;-75
2022/12/29 01:23:29;;;;;;;2.63;1.23;;;10.60;96.40;;;;;;5050629;28;20473;-75
2022/12/29 01:25:55;;;;;;;3.53;1.20;;;10.60;96.20;;;;;;5051767;28;20441;-75
2022/12/29 01:28:21;;;;;;;1.67;1.30;;;10.70;96.00;;;;;;5051584;28;20212;-75
2022/12/29 01:30:46;;;;;;;2.97;1.10;;;10.70;96.00;;;;;;5049979;28;20541;-75
2022/12/29 01:33:12;;;;;;;4.43;0.70;;;10.70;96.20;;;;;;5033368;28;20929;-75
2022/12/29 01:35:38;;;;;;;3.13;1.00;;;10.70;96.20;;;;;;5051238;28;20201;-76
2022/12/29 01:38:03;;;;;;;1.10;0.90;;;10.60;96.20;;;;;;5050359;28;20195;-75
2022/12/29 01:40:29;;;;;;;5.83;1.10;;;10.70;96.40;;;;;;5051160;28;20700;-75
2022/12/29 01:42:54;;;;;;;1.20;0.93;;;10.60;96.20;;;;;;5049912;28;20290;-76
2022/12/29 01:45:20;;;;;;;3.43;1.43;;;10.60;96.10;;;;;;5051098;28;20244;-75
2022/12/29 01:48:03;;;;;;;4.17;1.30;;;10.70;96.00;;;;;;5049560;28;20220;-76
2022/12/29 01:50:32;;;;;;;1.07;0.97;;;10.70;96.00;;;;;;5050681;28;21193;-76
2022/12/29 01:53:09;;;;;;;1.40;0.87;;;10.70;96.30;;;;;;5050576;28;20466;-76
2022/12/29 01:55:48;;;;;;;2.70;1.10;;;10.60;96.20;;;;;;5050611;28;20481;-76
2022/12/29 01:58:16;;;;;;;1.90;0.97;;;10.70;96.00;;;;;;5050734;28;20413;-76
2022/12/29 02:00:42;;;;;;;3.47;1.13;;;10.70;96.20;;;;;;5050288;28;20430;-76
2022/12/29 02:03:09;;;;;;;1.60;1.00;;;10.60;96.20;;;;;;5050344;28;20462;-77
2022/12/29 02:05:57;;;;;;;2.20;1.20;;;10.50;96.00;;;;;;5032533;28;20210;-76
2022/12/29 02:08:26;;;;;;;1.73;0.70;;;10.70;96.10;;;;;;5050675;28;20435;-76
2022/12/29 02:10:53;;;;;;;2.23;1.00;;;10.70;96.00;;;;;;5050169;28;20411;-76
2022/12/29 02:13:18;;;;;;;2.17;1.00;;;10.70;95.80;;;;;;5050065;28;20428;-76
2022/12/29 02:16:03;;;;;;;1.50;1.20;;;10.80;95.90;;;;;;5049943;28;20876;-76
2022/12/29 02:18:49;;;;;;;2.37;1.10;;;10.70;95.60;;;;;;5050194;28;20551;-76
2022/12/29 02:21:52;;;;;;;8.40;1.00;;;10.70;95.90;;;;;;5050104;28;20432;-76
2022/12/29 02:24:18;;;;;;;4.40;0.97;;;10.70;95.50;;;;;;5049094;28;20553;-75
2022/12/29 02:27:04;;;;;;;1.40;1.10;;;10.70;95.60;;;;;;5048346;28;20458;-75
2022/12/29 02:29:58;;;;;;;1.80;1.00;;;10.80;95.30;;;;;;5050008;28;20179;-75
2022/12/29 02:32:52;;;;;;;3.03;1.10;;;10.80;95.60;;;;;;5049784;28;20499;-75
2022/12/29 02:35:53;;;;;;;3.53;1.00;;;10.70;95.70;;;;;;5031088;28;20459;-75
2022/12/29 02:38:42;;;;;;;3.40;0.83;;;10.70;95.60;;;;;;5047977;28;20425;-75
2022/12/29 02:41:29;;;;;;;2.17;0.97;;;10.60;95.60;;;;;;5049906;28;20434;-76
2022/12/29 02:44:10;;;;;;;1.57;0.80;;;10.50;95.80;;;;;;5050499;28;20469;-76
2022/12/29 02:46:35;;;;;;;2.37;0.90;;;10.50;95.80;;;;;;5050420;28;20436;-76
2022/12/29 02:49:10;;;;;;;1.27;0.80;;;10.50;96.10;;;;;;5050294;28;20449;-77
2022/12/29 02:51:52;;;;;;;2.60;1.27;;;10.50;96.10;;;;;;5050038;28;20190;-76
2022/12/29 02:57:09;;;;;;;1.00;0.90;;;10.50;96.20;;;;;;5050070;28;20469;-76
2022/12/29 02:59:34;;;;;;;3.10;0.93;;;10.40;96.80;;;;;;5049501;28;20499;-77
2022/12/29 03:02:16;;;;;;;2.13;0.90;;;10.30;97.00;;;;;;5049108;28;20505;-78
2022/12/29 03:05:15;;;;;;;5.80;1.03;;;10.30;96.60;;;;;;5051399;28;21124;-77
2022/12/29 03:08:09;;;;;;;1.30;0.90;;;10.40;96.40;;;;;;5059776;28;20426;-77
2022/12/29 03:10:46;;;;;;;1.13;0.70;;;10.40;95.70;;;;;;5050222;28;20421;-75
2022/12/29 03:16:14;;;;;;;2.10;0.97;;;10.60;95.20;;;;;;5049280;28;20478;-76
2022/12/29 03:18:46;;;;;;;2.63;0.77;;;10.70;94.50;;;;;;5050631;28;20468;-75
2022/12/29 03:22:26;;;;;;;2.50;1.17;;;10.80;94.60;;;;;;5050422;28;20909;-76
2022/12/29 03:24:14;;;;;;;1.27;0.80;;;10.70;95.30;;;;;;5049648;28;20473;-76
2022/12/29 03:26:41;;;;;;;2.17;0.90;;;10.70;95.50;;;;;;5049755;28;20434;-77
2022/12/29 03:29:09;;;;;;;2.73;1.30;;;10.60;95.00;;;;;;5049743;28;20436;-76
2022/12/29 03:31:37;;;;;;;1.77;0.70;;;10.70;95.50;;;;;;5049575;28;20454;-76
2022/12/29 03:34:05;;;;;;;1.53;1.00;;;10.70;95.10;;;;;;5049848;28;20484;-77
2022/12/29 03:36:40;;;;;;;2.20;0.80;;;10.70;95.10;;;;;;5051824;28;20429;-77
2022/12/29 03:39:11;;;;;;;2.37;1.07;;;10.80;94.70;;;;;;5052203;28;20445;-76
2022/12/29 03:41:39;;;;;;;1.83;1.00;;;10.80;94.50;;;;;;5053264;28;20471;-77
2022/12/29 03:44:09;;;;;;;2.37;0.87;;;10.90;94.80;;;;;;5052174;28;21051;-77
2022/12/29 03:46:35;;;;;;;1.97;1.20;;;10.90;94.50;;;;;;5053535;28;20954;-76
2022/12/29 03:49:00;;;;;;;3.80;1.03;;;10.90;94.90;;;;;;5051818;28;20535;-75
2022/12/29 03:51:26;;;;;;;3.90;0.70;;;10.90;94.40;;;;;;5053425;28;20427;-76
2022/12/29 03:53:51;;;;;;;1.57;0.80;;;11.00;94.30;;;;;;5053236;28;20705;-76
2022/12/29 03:56:17;;;;;;;2.50;1.00;;;11.30;93.90;;;;;;5053992;28;20275;-76
2022/12/29 03:58:43;;;;;;;1.53;0.90;;;11.20;94.10;;;;;;5053271;28;20193;-75
2022/12/29 04:01:08;;;;;;;1.00;0.80;;;11.30;94.20;;;;;;5053251;28;20277;-76
2022/12/29 04:03:34;;;;;;;2.43;1.00;;;11.20;94.00;;;;;;5053756;28;20208;-76
2022/12/29 04:06:00;;;;;;;1.77;0.90;;;11.30;94.40;;;;;;5052178;28;20182;-77
2022/12/29 04:08:25;;;;;;;1.93;0.70;;;11.30;94.50;;;;;;5054025;28;20186;-76
2022/12/29 04:10:51;;;;;;;3.00;1.40;;;11.30;94.50;;;;;;5051676;28;20420;-77
2022/12/29 04:13:19;;;;;;;3.47;0.87;;;11.30;94.20;;;;;;5052015;28;20186;-75
2022/12/29 04:15:45;;;;;;;5.03;1.17;;;11.10;94.80;;;;;;5051847;28;20208;-77
2022/12/29 04:18:11;;;;;;;1.30;0.90;;;11.10;95.00;;;;;;5052376;28;20424;-77
2022/12/29 04:23:21;;;;;;;1.47;0.93;;;11.10;95.00;;;;;;5052639;28;20992;-76
2022/12/29 04:25:47;;;;;;;1.30;0.90;;;11.10;95.00;;;;;;5051284;28;20428;-75
2022/12/29 04:28:13;;;;;;;3.77;0.77;;;11.10;95.30;;;;;;5052750;28;20927;-76
2022/12/29 04:30:39;;;;;;;3.43;0.97;;;11.10;95.30;;;;;;5051393;28;20431;-76
2022/12/29 04:33:04;;;;;;;1.93;1.00;;;11.10;95.30;;;;;;5051352;28;20411;-76
2022/12/29 04:35:30;;;;;;;2.70;0.93;;;11.10;95.20;;;;;;5034253;28;20241;-76
2022/12/29 04:37:55;;;;;;;3.40;1.00;;;11.10;95.30;;;;;;5051187;28;20273;-76
2022/12/29 04:40:23;;;;;;;3.80;1.00;;;11.20;95.70;;;;;;5052317;28;20203;-76
2022/12/29 04:42:48;;;;;;;2.60;1.10;;;11.00;95.10;;;;;;5050503;28;20219;-76
2022/12/29 04:45:14;;;;;;;2.03;1.10;;;10.90;95.10;;;;;;5050436;28;20439;-77
2022/12/29 04:47:40;;;;;;;5.67;1.17;;;10.70;95.10;;;;;;5051002;28;20262;-76
2022/12/29 04:50:06;;;;;;;1.67;1.20;;;10.60;95.30;;;;;;5052180;28;20180;-76
2022/12/29 04:52:31;;;;;;;1.43;0.90;;;10.40;96.00;;;;;;5050757;28;20190;-76
2022/12/29 04:54:57;;;;;;;3.17;1.13;;;10.30;96.10;;;;;;5052265;28;20525;-76
2022/12/29 04:57:23;;;;;;;0.90;0.90;;;10.00;96.10;;;;;;5034049;28;20180;-76
2022/12/29 04:59:48;;;;;;;5.33;1.03;;;10.10;96.60;;;;;;5051955;28;20182;-76
2022/12/29 05:02:14;;;;;;;3.07;1.10;;;10.00;96.60;;;;;;5052032;28;20555;-76
2022/12/29 05:04:39;;;;;;;1.87;1.10;;;9.90;97.20;;;;;;5051613;28;20287;-76
2022/12/29 05:07:05;;;;;;;1.10;0.90;;;9.70;97.70;;;;;;5033770;28;20727;-76
2022/12/29 05:09:31;;;;;;;2.77;1.13;;;9.60;97.70;;;;;;5050761;28;20235;-76
2022/12/29 05:11:56;;;;;;;1.70;0.93;;;9.50;97.70;;;;;;5050531;28;20191;-76
2022/12/29 05:14:22;;;;;;;2.60;0.90;;;9.60;98.20;;;;;;5051822;28;20210;-75
2022/12/29 05:16:47;;;;;;;1.23;0.97;;;9.50;97.80;;;;;;5051076;28;20211;-75
2022/12/29 05:19:13;;;;;;;1.57;1.20;;;9.40;97.90;;;;;;5051136;28;20180;-76
2022/12/29 05:21:38;;;;;;;2.23;1.03;;;9.20;98.40;;;;;;5052029;28;20179;-76
2022/12/29 05:24:04;;;;;;;3.57;1.60;;;9.10;98.60;;;;;;5051845;28;20269;-76
2022/12/29 05:26:30;;;;;;;7.37;1.00;;;9.10;98.80;;;;;;5050607;28;20180;-76
2022/12/29 05:28:56;;;;;;;1.77;1.30;;;9.00;98.90;;;;;;5050285;28;21255;-75
2022/12/29 05:31:21;;;;;;;3.07;1.00;;;9.00;99.10;;;;;;5050231;28;20184;-76
2022/12/29 05:33:47;;;;;;;2.23;1.10;;;9.00;99.10;;;;;;5050162;28;20258;-76
2022/12/29 05:36:13;;;;;;;1.80;1.50;;;9.20;99.80;;;;;;5051706;28;20188;-76
2022/12/29 05:38:38;;;;;;;2.30;1.40;;;9.10;99.20;;;;;;5051843;28;20266;-76
2022/12/29 05:41:04;;;;;;;1.73;1.00;;;9.30;99.40;;;;;;5050712;28;20430;-76
2022/12/29 05:43:29;;;;;;;4.87;1.20;;;9.20;99.40;;;;;;5051783;28;20250;-74
2022/12/29 05:45:55;;;;;;;1.57;1.10;;;9.20;99.30;;;;;;5052094;28;20180;-74
2022/12/29 05:48:21;;;;;;;1.47;0.90;;;9.40;99.50;;;;;;5033835;28;20183;-74
2022/12/29 05:50:48;;;;;;;4.40;0.90;;;9.40;99.40;;;;;;5050175;28;20430;-75
2022/12/29 05:53:14;;;;;;;2.20;1.60;;;9.50;99.80;;;;;;5051793;28;20176;-76
2022/12/29 05:55:40;;;;;;;2.50;1.00;;;9.60;99.80;;;;;;5051744;28;20526;-76
2022/12/29 05:58:05;;;;;;;2.60;1.00;;;9.70;99.80;;;;;;5051313;28;20712;-76
2022/12/29 06:00:31;;;;;;;2.50;1.03;;;9.80;99.90;;;;;;5049773;28;20219;-77
2022/12/29 06:02:57;;;;;;;4.53;1.40;;;10.00;98.80;;;;;;5051779;28;20207;-77
2022/12/29 06:05:23;;;;;;;2.20;1.07;;;10.10;98.50;;;;;;5050237;28;20443;-75
2022/12/29 06:07:48;;;;;;;2.37;1.13;;;10.20;98.60;;;;;;5049960;28;20425;-75
2022/12/29 06:10:14;;;;;;;2.60;0.90;;;10.20;98.50;;;;;;5033174;28;20180;-75
2022/12/29 06:12:40;;;;;;;5.43;1.27;;;10.20;98.30;;;;;;5050929;28;20616;-76
2022/12/29 06:15:06;;;;;;;2.37;1.30;;;10.30;98.20;;;;;;5049803;28;20203;-77
2022/12/29 06:17:32;;;;;;;1.30;1.20;;;10.00;98.80;;;;;;5049945;28;20180;-76
2022/12/29 06:19:58;;;;;;;2.10;1.40;;;10.20;99.40;;;;;;5050734;28;20419;-74
2022/12/29 06:22:24;;;;;;;2.97;1.07;;;10.00;99.00;;;;;;5050645;28;20254;-77
2022/12/29 06:24:49;;;;;;;1.87;0.90;;;10.00;99.40;;;;;;5049176;28;20476;-76
2022/12/29 06:27:15;;;;;;;3.20;1.00;;;9.90;99.20;;;;;;5049308;28;20183;-75
2022/12/29 06:29:40;;;;;;;6.00;1.33;;;9.80;99.10;;;;;;5050421;28;20217;-76
2022/12/29 06:32:06;;;;;;;1.67;1.00;;;9.80;99.30;;;;;;5049003;28;20191;-75
2022/12/29 06:34:32;;;;;;;1.57;0.90;;;9.60;99.90;;;;;;5050321;28;20223;-76
2022/12/29 06:36:58;;;;;;;2.23;1.00;;;9.60;99.90;;;;;;5048800;28;20590;-75
2022/12/29 06:39:23;;;;;;;1.40;1.10;;;9.50;99.90;;;;;;5049485;28;20188;-77
2022/12/29 06:41:53;;;;;;;2.60;1.00;;;9.70;99.90;;;;;;5049961;28;20254;-76
2022/12/29 06:44:19;;;;;;;2.13;1.13;;;9.60;99.90;;;;;;5049916;28;20682;-76
2022/12/29 06:46:45;;;;;;;1.00;0.80;;;9.70;99.90;;;;;;5050135;28;20418;-74
2022/12/29 06:49:10;;;;;;;3.50;1.07;;;9.80;99.90;;;;;;5048381;28;20423;-76
2022/12/29 06:51:36;;;;;;;1.10;0.97;;;9.90;99.90;;;;;;5049696;28;20271;-77
2022/12/29 06:54:01;;;;;;;1.20;1.10;;;9.90;99.90;;;;;;5050302;28;20283;-77
2022/12/29 06:56:27;;;;;;;3.67;1.00;;;9.90;99.90;;;;;;5032404;28;20977;-77
2022/12/29 06:58:53;;;;;;;1.43;1.30;;;9.90;99.90;;;;;;5048637;28;20191;-77
2022/12/29 07:01:18;;;;;;;1.57;1.40;;;9.90;99.90;;;;;;5049386;28;20185;-77
2022/12/29 07:03:44;;;;;;;2.43;1.10;;;10.00;99.90;;;;;;5047832;28;20780;-77
2022/12/29 07:06:10;;;;;;;4.40;1.50;;;10.00;99.90;;;;;;5031860;28;20181;-77
2022/12/29 07:08:35;;;;;;;1.40;1.20;;;9.90;99.90;;;;;;5049309;28;20181;-76
2022/12/29 07:11:01;;;;;;;0.90;0.73;;;10.20;99.70;;;;;;5048314;28;20181;-77
2022/12/29 07:13:26;;;;;;;1.90;0.93;;;10.30;99.80;;;;;;5048995;28;20194;-76
2022/12/29 07:15:52;;;;;;;2.60;0.93;;;10.30;99.50;;;;;;5047693;28;20200;-77
2022/12/29 07:18:18;;;;;;;3.90;1.00;;;10.30;99.40;;;;;;5049438;28;20214;-76
2022/12/29 07:20:44;;;;;;;1.73;1.33;;;10.30;99.40;;;;;;5031563;28;20196;-76
2022/12/29 07:23:10;;;;;;;1.80;1.07;;;10.30;99.30;;;;;;5049214;28;20723;-76
2022/12/29 07:25:36;;;;;;;4.57;1.17;;;10.40;99.40;;;;;;5049289;28;20654;-76
2022/12/29 07:28:03;;;;;;;6.10;1.17;;;10.60;99.40;;;;;;5031367;28;20430;-76
2022/12/29 07:30:28;;;;;;;1.57;0.93;;;10.50;99.30;;;;;;5031365;28;20226;-76
2022/12/29 07:32:54;;;;;;;5.43;1.27;;;10.50;99.20;;;;;;5031533;28;20423;-76
2022/12/29 07:35:19;;;;;;;1.30;1.20;;;10.50;99.50;;;;;;5048296;28;20412;-76
2022/12/29 07:37:45;;;;;;;10.30;1.40;;;10.50;99.50;;;;;;5049284;28;20294;-76
2022/12/29 07:40:11;;;;;;;1.33;1.07;;;10.40;99.70;;;;;;5049644;28;20188;-76
2022/12/29 07:42:37;;;;;;;4.63;1.13;;;10.50;99.60;;;;;;5047760;28;20691;-77
2022/12/29 07:45:03;;;;;;;2.93;0.93;;;10.50;99.50;;;;;;5031655;28;20200;-76
2022/12/29 07:47:28;;;;;;;2.17;0.80;;;10.50;99.70;;;;;;5047912;28;20528;-76
2022/12/29 07:49:54;;;;;;;1.90;0.83;;;10.50;99.70;;;;;;5049015;28;20416;-76
2022/12/29 07:52:19;;;;;;;1.10;0.93;;;10.60;99.90;;;;;;5048992;28;20264;-76
2022/12/29 07:54:45;;;;;;;3.27;1.47;;;10.60;99.60;;;;;;5048807;28;20680;-76
2022/12/29 07:57:11;;;;;;;2.10;0.87;;;10.60;99.60;;;;;;5030893;28;20776;-75
2022/12/29 07:59:36;;;;;;;3.87;1.00;;;10.70;99.70;;;;;;5030757;28;21010;-76
2022/12/29 08:02:02;;;;;;;2.30;1.00;;;10.70;99.70;;;;;;5047478;28;20201;-76
2022/12/29 08:04:28;;;;;;;3.80;1.00;;;10.70;99.40;;;;;;5048871;28;20716;-76
2022/12/29 08:06:53;;;;;;;3.07;1.10;;;10.80;99.40;;;;;;5046949;28;20489;-76
2022/12/29 08:09:19;;;;;;;1.63;0.80;;;10.80;99.70;;;;;;5047388;28;20197;-76
2022/12/29 08:11:45;;;;;;;2.50;0.87;;;10.90;99.60;;;;;;5046878;28;20202;-76
2022/12/29 08:14:10;;;;;;;4.10;1.40;;;11.00;99.20;;;;;;5030501;28;20212;-76
2022/12/29 08:16:36;;;;;;;2.80;1.10;;;10.90;98.90;;;;;;5047464;28;20572;-76
2022/12/29 08:19:03;;;;;;;1.10;0.90;;;11.10;98.90;;;;;;5045839;28;20206;-76
2022/12/29 08:21:29;;;;;;;2.30;1.30;;;11.20;98.80;;;;;;5045387;28;20191;-75
2022/12/29 08:23:55;;;;;;;1.90;0.87;;;11.20;98.70;;;;;;5049363;28;20477;-76
2022/12/29 08:26:21;;;;;;;2.00;1.10;;;11.30;98.60;;;;;;5050808;28;20427;-76
2022/12/29 08:28:47;;;;;;;2.00;0.97;;;11.30;98.00;;;;;;5050579;28;20191;-75
2022/12/29 08:31:13;;;;;;;1.80;1.00;;;11.40;97.80;;;;;;5032879;28;20434;-75
2022/12/29 08:33:38;;;;;;;1.80;1.00;;;11.50;97.60;;;;;;5050414;28;20246;-76
2022/12/29 08:36:06;;;;;;;1.90;1.00;;;11.60;97.10;;;;;;5032346;28;20428;-75
2022/12/29 08:38:32;;;;;;;1.30;1.20;;;11.70;97.00;;;;;;5048981;28;20197;-76
2022/12/29 08:41:00;;;;;;;4.50;1.37;;;11.70;96.60;;;;;;5050040;28;20443;-76
2022/12/29 08:43:27;;;;;;;2.73;1.50;;;11.60;96.90;;;;;;5050318;28;20545;-75
2022/12/29 08:45:53;;;;;;;3.77;1.00;;;11.50;97.10;;;;;;5050512;28;20427;-76
2022/12/29 08:48:19;;;;;;;3.13;1.37;;;11.40;97.10;;;;;;5049284;28;20428;-75
2022/12/29 08:50:46;;;;;;;2.83;1.33;;;11.50;96.90;;;;;;5048907;28;20205;-76
2022/12/29 08:53:12;;;;;;;3.17;1.07;;;11.30;97.10;;;;;;5049935;28;20420;-75
2022/12/29 08:55:38;;;;;;;1.40;1.23;;;11.20;96.90;;;;;;5051106;28;20471;-77
2022/12/29 08:58:03;;;;;;;4.80;1.00;;;11.20;97.50;;;;;;5050460;28;20198;-75
2022/12/29 09:00:29;;;;;;;3.77;1.60;;;11.10;97.20;;;;;;5048623;28;20197;-74
2022/12/29 09:02:55;;;;;;;2.97;1.50;;;11.20;97.40;;;;;;5050706;28;21002;-74
2022/12/29 09:05:21;;;;;;;3.37;1.23;;;11.20;97.90;;;;;;5048639;28;20202;-75
2022/12/29 09:07:47;;;;;;;3.40;1.33;;;11.10;97.80;;;;;;5050215;28;20181;-74
2022/12/29 09:10:13;;;;;;;21.53;9.43;;;11.10;97.80;;;;;;5050251;28;20422;-74
2022/12/29 09:12:38;;;;;;;3.00;1.50;;;11.00;98.30;;;;;;5050107;28;20219;-74
2022/12/29 09:15:05;;;;;;;4.33;1.43;;;11.00;98.40;;;;;;5048692;28;20261;-76
2022/12/29 09:17:43;;;;;;;1.47;1.37;;;10.90;98.60;;;;;;5050058;28;20710;-75
2022/12/29 09:20:10;;;;;;;1.10;0.90;;;10.90;98.90;;;;;;5049981;28;20981;-76
2022/12/29 09:22:36;;;;;;;2.63;1.33;;;10.90;99.10;;;;;;5050335;28;20419;-75
2022/12/29 09:25:02;;;;;;;2.17;1.33;;;10.90;99.10;;;;;;5050480;28;20447;-77
2022/12/29 09:27:28;;;;;;;7.27;1.70;;;10.90;99.30;;;;;;5050395;28;20419;-76
2022/12/29 09:29:54;;;;;;;2.70;1.20;;;10.90;99.50;;;;;;5032288;28;20429;-76
2022/12/29 09:32:20;;;;;;;2.70;1.43;;;10.90;99.40;;;;;;5060438;28;20429;-76
2022/12/29 09:34:45;;;;;;;2.10;1.40;;;10.90;99.70;;;;;;5070826;28;20205;-77
2022/12/29 09:37:11;;;;;;;5.23;1.27;;;10.90;99.90;;;;;;5069739;28;20194;-76
2022/12/29 09:39:37;;;;;;;5.40;1.27;;;10.90;99.90;;;;;;5054044;28;20281;-76
2022/12/29 09:42:16;;;;;;;4.93;2.10;;;11.00;99.90;;;;;;5050037;28;20651;-77
2022/12/29 09:44:51;;;;;;;3.27;1.23;;;11.00;99.90;;;;;;5049581;28;20226;-76
2022/12/29 09:47:18;;;;;;;3.83;1.60;;;10.90;99.90;;;;;;5049794;28;20521;-77
2022/12/29 09:49:49;;;;;;;4.43;1.10;;;10.90;99.90;;;;;;5050769;28;20430;-76
2022/12/29 09:52:31;;;;;;;3.03;1.33;;;10.90;99.90;;;;;;5051056;28;20422;-77
2022/12/29 09:55:03;;;;;;;3.93;1.23;;;11.00;99.90;;;;;;5049121;28;20489;-77
2022/12/29 09:57:40;;;;;;;2.20;1.50;;;11.00;99.90;;;;;;5048599;28;21012;-76
2022/12/29 10:00:27;;;;;;;1.97;1.40;;;11.00;99.90;;;;;;5049754;28;20441;-76
2022/12/29 10:03:00;;;;;;;8.03;1.80;;;11.00;99.90;;;;;;5049630;28;20425;-76
2022/12/29 10:05:40;;;;;;;3.23;1.40;;;11.10;99.90;;;;;;5049783;28;20577;-76
2022/12/29 10:08:20;;;;;;;6.93;1.63;;;11.10;99.90;;;;;;5049315;28;20424;-77
2022/12/29 10:10:59;;;;;;;2.23;1.20;;;11.10;99.90;;;;;;5049167;28;20418;-76
2022/12/29 10:14:09;;;;;;;3.10;1.30;;;11.10;99.90;;;;;;5048835;28;20449;-76
2022/12/29 10:16:46;;;;;;;1.70;1.33;;;11.10;99.90;;;;;;5038053;28;20552;-76
2022/12/29 10:19:31;;;;;;;4.70;1.37;;;11.10;99.90;;;;;;5049073;28;20896;-77
2022/12/29 10:22:29;;;;;;;3.70;1.23;;;11.10;99.90;;;;;;5047179;28;20444;-77
2022/12/29 10:24:56;;;;;;;6.43;1.57;;;11.10;99.90;;;;;;5048522;28;21205;-77
2022/12/29 10:27:23;;;;;;;6.93;1.50;;;11.20;99.90;;;;;;5048600;28;20445;-78
2022/12/29 10:30:00;;;;;;;1.93;1.50;;;11.10;99.90;;;;;;5048911;28;21103;-78
2022/12/29 10:32:45;;;;;;;1.60;1.50;;;11.20;99.90;;;;;;5048748;28;20638;-77
2022/12/29 10:35:23;;;;;;;3.00;1.20;;;11.20;99.90;;;;;;5048928;28;20431;-77
2022/12/29 10:38:27;;;;;;;2.73;1.40;;;11.20;99.90;;;;;;5048682;28;20417;-77
2022/12/29 10:41:16;;;;;;;2.60;1.10;;;11.20;99.90;;;;;;5006152;28;20463;-77
2022/12/29 10:43:57;;;;;;;3.17;1.50;;;11.30;99.90;;;;;;5038852;28;20475;-77
2022/12/29 10:46:30;;;;;;;2.73;1.00;;;11.30;99.90;;;;;;5048237;28;20507;-77
2022/12/29 10:48:56;;;;;;;2.23;1.40;;;11.30;99.90;;;;;;5047476;28;20902;-77
2022/12/29 10:51:26;;;;;;;1.53;1.30;;;11.30;99.90;;;;;;5047548;28;20451;-77
2022/12/29 10:53:57;;;;;;;6.20;1.50;;;11.50;99.90;;;;;;5048723;28;20296;-77
2022/12/29 10:57:24;;;;;;;2.20;1.07;;;11.40;99.90;;;;;;5049066;28;21234;-77
2022/12/29 10:59:50;;;;;;;1.20;0.87;;;11.60;99.90;;;;;;5006497;28;20535;-77
2022/12/29 11:02:33;;;;;;;4.90;1.10;;;11.70;99.90;;;;;;5047348;28;20633;-77
2022/12/29 11:05:08;;;;;;;3.20;1.00;;;11.70;99.90;;;;;;5048033;28;20234;-77
2022/12/29 11:07:34;;;;;;;0.90;0.70;;;11.80;99.90;;;;;;5048208;28;20421;-77
2022/12/29 11:10:22;;;;;;;0.90;0.70;;;11.80;99.90;;;;;;5046838;28;20424;-77
2022/12/29 11:12:57;;;;;;;1.07;0.93;;;11.90;99.90;;;;;;5048388;28;21407;-77
2022/12/29 11:15:23;;;;;;;4.10;1.43;;;12.00;99.90;;;;;;5046408;28;20447;-76
2022/12/29 11:17:51;;;;;;;1.50;1.33;;;12.00;99.90;;;;;;5048173;28;20439;-76
2022/12/29 11:20:30;;;;;;;2.03;1.13;;;12.00;99.90;;;;;;5047822;28;20220;-76
2022/12/29 11:22:56;;;;;;;1.33;1.00;;;12.10;99.90;;;;;;5047382;28;20755;-76
2022/12/29 11:25:21;;;;;;;1.63;1.00;;;12.20;99.90;;;;;;5047535;28;20422;-77
2022/12/29 11:28:13;;;;;;;1.20;1.10;;;12.30;99.90;;;;;;5048553;28;21060;-76
2022/12/29 11:30:39;;;;;;;0.80;0.77;;;12.30;99.90;;;;;;5046430;28;20178;-76
2022/12/29 11:33:05;;;;;;;2.77;1.10;;;12.30;99.90;;;;;;5047926;28;20423;-76
2022/12/29 11:35:44;;;;;;;3.40;1.37;;;12.30;99.90;;;;;;5046216;28;20206;-76
2022/12/29 11:38:22;;;;;;;1.77;0.90;;;12.50;99.90;;;;;;5047498;28;20602;-75
2022/12/29 11:40:48;;;;;;;2.93;1.00;;;12.50;99.90;;;;;;5045819;28;20447;-77
2022/12/29 11:43:29;;;;;;;4.60;1.03;;;12.50;99.90;;;;;;5046114;28;20890;-77
2022/12/29 11:45:56;;;;;;;3.57;0.73;;;12.50;99.90;;;;;;5046296;28;20447;-76
2022/12/29 11:48:22;;;;;;;1.60;0.77;;;12.60;99.90;;;;;;5045941;28;20436;-77
2022/12/29 11:50:55;;;;;;;1.10;0.83;;;13.30;99.90;;;;;;5029872;28;20427;-77
2022/12/29 11:53:27;;;;;;;1.40;0.90;;;13.60;99.90;;;;;;5046357;28;20437;-76
2022/12/29 11:55:57;;;;;;;4.90;0.90;;;13.70;99.90;;;;;;5047725;28;20415;-77
2022/12/29 11:58:43;;;;;;;1.00;0.77;;;13.40;99.90;;;;;;5051627;28;20822;-77
2022/12/29 12:01:31;;;;;;;1.50;0.77;;;13.20;99.90;;;;;;5050477;28;21306;-78
2022/12/29 12:04:12;;;;;;;1.30;1.17;;;13.10;99.90;;;;;;5052081;28;20478;-79
2022/12/29 12:06:49;;;;;;;1.23;1.00;;;13.20;99.90;;;;;;5051144;28;20504;-78
2022/12/29 12:09:32;;;;;;;1.57;0.83;;;13.10;99.90;;;;;;5051188;28;20437;-79
2022/12/29 12:12:00;;;;;;;1.20;0.93;;;12.90;99.90;;;;;;5050811;28;20429;-78
2022/12/29 12:14:38;;;;;;;1.67;1.10;;;12.80;99.90;;;;;;5033418;28;20473;-78
2022/12/29 12:17:14;;;;;;;1.77;0.90;;;12.60;99.90;;;;;;5051640;28;20429;-78
2022/12/29 12:20:05;;;;;;;3.80;1.30;;;12.50;99.90;;;;;;5052266;28;20428;-79
2022/12/29 12:22:40;;;;;;;3.27;0.83;;;12.50;99.90;;;;;;5051740;28;20419;-78
2022/12/29 12:25:28;;;;;;;3.00;1.10;;;12.40;99.90;;;;;;5049937;28;20476;-78
2022/12/29 12:27:57;;;;;;;2.40;1.00;;;12.20;99.90;;;;;;5051232;28;21254;-77
2022/12/29 12:30:27;;;;;;;1.40;1.00;;;12.10;99.90;;;;;;5051404;28;20416;-77
2022/12/29 12:33:18;;;;;;;3.10;1.00;;;12.10;99.90;;;;;;5033253;28;20459;-78
2022/12/29 12:35:51;;;;;;;0.90;0.77;;;12.00;99.90;;;;;;5049781;28;20447;-78
2022/12/29 12:39:15;;;;;;;1.70;1.40;;;11.90;99.90;;;;;;5049476;28;20424;-77
2022/12/29 12:42:25;;;;;;;1.17;1.07;;;11.90;99.90;;;;;;4988824;28;21004;-77
2022/12/29 12:45:18;;;;;;;2.03;0.90;;;11.80;99.90;;;;;;5050742;28;20483;-79
2022/12/29 12:48:18;;;;;;;1.70;1.27;;;11.70;99.90;;;;;;5049176;28;20472;-79
2022/12/29 12:50:58;;;;;;;2.23;1.00;;;11.70;99.90;;;;;;5050618;28;20429;-79
2022/12/29 12:54:01;;;;;;;2.80;1.23;;;11.60;99.90;;;;;;5049288;28;20424;-79
2022/12/29 12:56:41;;;;;;;1.40;1.10;;;11.50;99.90;;;;;;5049336;28;20447;-79
2022/12/29 12:59:26;;;;;;;3.83;1.07;;;11.50;99.90;;;;;;5048997;28;21249;-79
2022/12/29 13:02:24;;;;;;;2.60;1.30;;;11.50;99.90;;;;;;5050493;28;20428;-79
2022/12/29 13:04:55;;;;;;;1.17;1.07;;;11.60;99.90;;;;;;5050345;28;20477;-79
2022/12/29 13:07:58;;;;;;;1.33;0.97;;;11.60;99.90;;;;;;5050510;28;20419;-79
2022/12/29 13:10:29;;;;;;;1.90;1.07;;;11.60;99.90;;;;;;5050303;28;20422;-78
2022/12/29 13:13:33;;;;;;;1.67;1.10;;;11.70;99.90;;;;;;5050204;28;20444;-79
2022/12/29 13:16:04;;;;;;;1.63;1.40;;;11.70;99.90;;;;;;5051125;28;20460;-79
2022/12/29 13:18:58;;;;;;;1.90;1.07;;;11.70;99.90;;;;;;5055699;28;20464;-79
2022/12/29 13:22:01;;;;;;;4.23;2.20;;;11.70;99.90;;;;;;5052216;28;21021;-80
2022/12/29 13:24:36;;;;;;;2.37;1.17;;;11.70;99.90;;;;;;5048893;28;20496;-78
2022/12/29 13:27:09;;;;;;;3.43;1.00;;;11.70;99.90;;;;;;5048469;28;20409;-79
2022/12/29 13:29:57;;;;;;;2.00;1.03;;;11.70;99.90;;;;;;5049355;28;20492;-79
2022/12/29 13:32:29;;;;;;;2.50;1.30;;;11.70;99.90;;;;;;5050069;28;20414;-78
2022/12/29 13:35:11;;;;;;;1.70;0.90;;;11.70;99.90;;;;;;5050014;28;20498;-79
2022/12/29 13:37:48;;;;;;;2.07;1.10;;;11.70;99.90;;;;;;5048501;28;20426;-79
2022/12/29 13:40:18;;;;;;;1.77;1.37;;;11.70;99.90;;;;;;5049617;28;20469;-79
2022/12/29 13:42:45;;;;;;;1.57;1.00;;;11.50;99.90;;;;;;5048544;28;20535;-79
2022/12/29 13:45:20;;;;;;;2.23;1.20;;;11.60;99.90;;;;;;5049480;28;20995;-78
2022/12/29 13:48:15;;;;;;;4.50;1.13;;;11.70;99.90;;;;;;5049882;28;20517;-78